Time;durP1;ratioP1;P1;durP2;ratioP2;P2;SDS_P1;SDS_P2;PMS_P1;PMS_P2;Temp;Humidity;BMP_temperature;BMP_pressure;BME280_temperature;BME280_humidity;BME280_pressure;Samples;Min_cycle;Max_cycle;Signal;HPM_P1;HPM_P2
2022/10/18 00:01:35;;;;;;;9.97;5.47;;;;;;;14.47;100.00;98997.88;5012981;28;20596;-71
2022/10/18 00:04:01;;;;;;;7.03;5.53;;;;;;;14.43;100.00;98995.88;5013098;28;20228;-71
2022/10/18 00:06:28;;;;;;;6.40;5.37;;;;;;;14.39;100.00;98997.34;5013614;28;20203;-71
2022/10/18 00:08:54;;;;;;;8.97;5.10;;;;;;;14.35;100.00;99002.31;5015221;28;20206;-71
2022/10/18 00:11:21;;;;;;;8.60;5.30;;;;;;;14.29;100.00;99005.84;5016398;28;20717;-71
2022/10/18 00:13:47;;;;;;;8.13;5.63;;;;;;;14.25;100.00;99006.53;5016663;28;20550;-71
2022/10/18 00:16:16;;;;;;;6.70;5.20;;;;;;;14.21;100.00;98998.13;5016240;28;20230;-71
2022/10/18 00:18:43;;;;;;;11.07;5.23;;;;;;;14.21;100.00;99005.31;5016696;28;20209;-71
2022/10/18 00:21:16;;;;;;;8.13;5.27;;;;;;;14.18;100.00;98998.53;5016243;28;20230;-71
2022/10/18 00:23:43;;;;;;;7.63;5.10;;;;;;;14.20;100.00;99004.50;5016566;28;20206;-71
2022/10/18 00:26:19;;;;;;;10.70;5.60;;;;;;;14.19;100.00;99007.34;5016470;28;20214;-71
2022/10/18 00:28:49;;;;;;;10.60;5.60;;;;;;;14.17;100.00;99002.25;5016174;28;20197;-71
2022/10/18 00:31:36;;;;;;;11.57;5.27;;;;;;;14.16;100.00;99000.59;5016340;28;20587;-71
2022/10/18 00:34:06;;;;;;;11.20;5.00;;;;;;;14.19;100.00;99004.69;5016432;28;20195;-71
2022/10/18 00:36:34;;;;;;;9.07;5.00;;;;;;;14.16;100.00;98997.91;5016167;28;20596;-71
2022/10/18 00:39:02;;;;;;;8.27;5.30;;;;;;;14.17;100.00;99007.59;5016197;28;20203;-71
2022/10/18 00:41:31;;;;;;;10.57;5.80;;;;;;;14.17;100.00;98998.75;5016196;28;20226;-71
2022/10/18 00:44:01;;;;;;;7.37;5.33;;;;;;;14.18;100.00;98995.84;5016192;28;20207;-71
2022/10/18 00:46:30;;;;;;;8.97;5.50;;;;;;;14.24;100.00;98999.53;5016136;28;20205;-71
2022/10/18 00:49:01;;;;;;;8.37;5.53;;;;;;;14.27;100.00;98999.09;5016119;28;20211;-71
2022/10/18 00:51:39;;;;;;;9.07;5.00;;;;;;;14.28;100.00;99000.72;5016051;28;20226;-71
2022/10/18 00:54:05;;;;;;;11.17;4.80;;;;;;;14.30;100.00;99004.00;5016075;28;20186;-71
2022/10/18 00:56:33;;;;;;;9.53;5.57;;;;;;;14.34;100.00;99005.22;5014717;28;20236;-71
2022/10/18 00:59:00;;;;;;;10.67;5.50;;;;;;;14.33;100.00;99001.72;5014661;28;20211;-71
2022/10/18 01:01:26;;;;;;;9.67;5.00;;;;;;;14.33;100.00;98999.03;5015835;28;20223;-71
2022/10/18 01:03:53;;;;;;;9.13;5.40;;;;;;;14.34;100.00;99011.38;5015473;28;20677;-71
2022/10/18 01:06:20;;;;;;;6.43;4.70;;;;;;;14.30;100.00;99010.16;5015734;28;20199;-71
2022/10/18 01:09:12;;;;;;;8.70;4.70;;;;;;;14.33;100.00;99003.59;5016098;28;20226;-71
2022/10/18 01:12:01;;;;;;;8.43;4.50;;;;;;;14.36;100.00;99003.13;5015313;28;20234;-71
2022/10/18 01:14:35;;;;;;;8.57;5.43;;;;;;;14.37;100.00;99007.44;5015493;28;20225;-71
2022/10/18 01:17:23;;;;;;;12.33;5.03;;;;;;;14.32;100.00;99007.28;5015368;28;20210;-71
2022/10/18 01:19:52;;;;;;;8.33;5.23;;;;;;;14.34;100.00;98997.19;5014356;28;20195;-71
2022/10/18 01:22:21;;;;;;;11.00;5.00;;;;;;;14.32;100.00;98989.38;5015398;28;20212;-71
2022/10/18 01:25:03;;;;;;;9.73;5.10;;;;;;;14.35;100.00;98991.63;5015353;28;20206;-71
2022/10/18 01:28:02;;;;;;;8.53;4.77;;;;;;;14.37;100.00;98989.53;5015386;28;20202;-71
2022/10/18 01:30:37;;;;;;;7.97;4.67;;;;;;;14.37;100.00;98994.06;4992375;28;20682;-71
2022/10/18 01:33:22;;;;;;;7.43;5.00;;;;;;;14.40;100.00;98994.44;5015257;28;20554;-71
2022/10/18 01:35:54;;;;;;;9.70;5.10;;;;;;;14.41;100.00;99009.47;5015212;28;20187;-71
2022/10/18 01:38:24;;;;;;;9.83;4.50;;;;;;;14.42;100.00;98994.25;5014833;28;20217;-71
2022/10/18 01:40:52;;;;;;;8.33;4.70;;;;;;;14.39;100.00;98998.13;5015338;28;20227;-71
2022/10/18 01:43:23;;;;;;;9.30;4.40;;;;;;;14.39;100.00;99000.81;5015006;28;20213;-71
2022/10/18 01:45:49;;;;;;;10.20;4.27;;;;;;;14.44;100.00;99001.00;5015111;28;20366;-71
2022/10/18 01:48:17;;;;;;;10.33;4.43;;;;;;;14.42;100.00;98997.72;5014967;28;20577;-71
2022/10/18 01:50:43;;;;;;;7.53;4.23;;;;;;;14.42;100.00;98996.91;5014575;28;20227;-71
2022/10/18 01:53:24;;;;;;;7.97;4.10;;;;;;;14.47;100.00;98989.84;5014830;28;20219;-71
2022/10/18 01:56:04;;;;;;;5.60;4.27;;;;;;;14.45;100.00;98996.44;5014555;28;20216;-71
2022/10/18 01:59:02;;;;;;;6.83;4.47;;;;;;;14.38;100.00;98999.19;5013415;28;20697;-71
2022/10/18 02:01:42;;;;;;;7.87;4.47;;;;;;;14.35;100.00;98996.97;5012889;28;20226;-71
2022/10/18 02:04:23;;;;;;;12.47;4.57;;;;;;;14.37;100.00;98994.88;5014790;28;20186;-71
2022/10/18 02:06:57;;;;;;;6.53;4.30;;;;;;;14.44;100.00;98995.66;5013531;28;20570;-71
2022/10/18 02:09:38;;;;;;;9.63;4.40;;;;;;;14.47;100.00;98995.19;5014705;28;20190;-71
2022/10/18 02:12:09;;;;;;;6.23;4.50;;;;;;;14.44;100.00;99000.16;5014627;28;20563;-71
2022/10/18 02:14:36;;;;;;;6.70;4.30;;;;;;;14.44;100.00;98998.34;5014208;28;20662;-71
2022/10/18 02:17:07;;;;;;;9.70;4.10;;;;;;;14.49;100.00;99001.16;5014469;28;20211;-71
2022/10/18 02:19:39;;;;;;;12.10;4.17;;;;;;;14.54;100.00;99004.00;4997126;28;20277;-71
2022/10/18 02:22:10;;;;;;;8.27;4.30;;;;;;;14.48;100.00;98994.16;5014475;28;20245;-71
2022/10/18 02:24:42;;;;;;;10.00;4.50;;;;;;;14.49;100.00;98994.97;5013313;28;20191;-71
2022/10/18 02:27:09;;;;;;;5.30;4.20;;;;;;;14.47;100.00;98986.38;5014062;28;20194;-71
2022/10/18 02:29:36;;;;;;;9.53;4.17;;;;;;;14.46;100.00;98990.06;5014170;28;20211;-71
2022/10/18 02:32:28;;;;;;;11.73;4.53;;;;;;;14.46;100.00;98998.09;5014548;28;20207;-71
2022/10/18 02:35:07;;;;;;;5.10;3.87;;;;;;;14.45;100.00;98986.56;5014014;28;20210;-71
2022/10/18 02:37:37;;;;;;;7.60;3.80;;;;;;;14.47;100.00;98989.84;5014128;28;20221;-71
2022/10/18 02:40:06;;;;;;;8.07;3.93;;;;;;;14.44;100.00;98984.13;5014432;28;20237;-71
2022/10/18 02:42:35;;;;;;;7.80;3.90;;;;;;;14.45;100.00;98981.22;5014276;28;20218;-71
2022/10/18 02:45:01;;;;;;;9.57;4.07;;;;;;;14.41;100.00;98985.38;5014063;28;20265;-71
2022/10/18 02:47:28;;;;;;;9.07;3.70;;;;;;;14.41;100.00;98976.53;5013977;28;20202;-71
2022/10/18 02:49:54;;;;;;;6.20;4.00;;;;;;;14.38;100.00;98977.00;5013884;28;20238;-71
2022/10/18 02:52:20;;;;;;;10.03;3.97;;;;;;;14.39;100.00;98987.44;5013893;28;20214;-71
2022/10/18 02:54:47;;;;;;;7.00;3.83;;;;;;;14.39;100.00;98987.44;5013887;28;20202;-71
2022/10/18 02:57:13;;;;;;;8.90;4.00;;;;;;;14.42;100.00;98986.22;5013354;28;20223;-71
2022/10/18 02:59:39;;;;;;;9.30;4.37;;;;;;;14.40;100.00;98981.06;5013608;28;20206;-71
2022/10/18 03:02:06;;;;;;;11.13;3.77;;;;;;;14.41;100.00;98981.88;5013800;28;20210;-71
2022/10/18 03:04:32;;;;;;;8.37;4.00;;;;;;;14.40;100.00;98975.72;5013647;28;20206;-71
2022/10/18 03:06:58;;;;;;;9.17;3.80;;;;;;;14.43;100.00;98977.94;5014084;28;20217;-71
2022/10/18 03:09:25;;;;;;;8.17;3.57;;;;;;;14.39;100.00;98975.94;5013357;28;20213;-71
2022/10/18 03:11:51;;;;;;;8.53;4.10;;;;;;;14.40;100.00;98978.41;5013633;28;20226;-71
2022/10/18 03:14:17;;;;;;;13.77;4.23;;;;;;;14.39;100.00;98973.25;5013432;28;20206;-71
2022/10/18 03:16:44;;;;;;;8.27;3.90;;;;;;;14.37;100.00;98975.31;5013290;28;20214;-71
2022/10/18 03:19:10;;;;;;;8.93;3.83;;;;;;;14.38;100.00;98983.13;5013488;28;20368;-71
2022/10/18 03:21:37;;;;;;;9.97;3.67;;;;;;;14.37;100.00;98978.81;5013263;28;20252;-71
2022/10/18 03:24:03;;;;;;;9.33;4.17;;;;;;;14.37;100.00;98984.19;5013541;28;20217;-71
2022/10/18 03:26:30;;;;;;;8.73;3.70;;;;;;;14.32;100.00;98978.69;5013552;28;20206;-71
2022/10/18 03:28:56;;;;;;;8.93;3.80;;;;;;;14.34;100.00;98981.94;5014264;28;20234;-71
2022/10/18 03:31:22;;;;;;;11.70;4.00;;;;;;;14.31;100.00;98966.34;5012965;28;20222;-71
2022/10/18 03:33:49;;;;;;;9.50;3.83;;;;;;;14.32;100.00;98970.66;5014068;28;20206;-71
2022/10/18 03:36:15;;;;;;;6.50;4.00;;;;;;;14.29;100.00;98963.06;5012934;28;20206;-71
2022/10/18 03:38:42;;;;;;;9.60;4.13;;;;;;;14.32;100.00;98959.94;5013063;28;20321;-71
2022/10/18 03:41:10;;;;;;;6.47;3.97;;;;;;;14.28;100.00;98968.63;5013108;28;20238;-71
2022/10/18 03:43:36;;;;;;;7.80;3.90;;;;;;;14.27;100.00;98964.31;5015210;28;20210;-71
2022/10/18 03:46:03;;;;;;;8.43;4.10;;;;;;;14.28;100.00;98964.09;5017041;28;20207;-71
2022/10/18 03:48:29;;;;;;;11.27;4.27;;;;;;;14.29;100.00;98959.59;5016787;28;20684;-71
2022/10/18 03:50:56;;;;;;;7.57;4.43;;;;;;;14.25;100.00;98958.38;5017038;28;20226;-71
2022/10/18 03:53:22;;;;;;;6.87;4.30;;;;;;;14.27;100.00;98964.31;5017040;28;20217;-71
2022/10/18 03:55:53;;;;;;;7.87;3.90;;;;;;;14.21;100.00;98959.84;5016888;28;20209;-71
2022/10/18 03:58:19;;;;;;;8.17;4.10;;;;;;;14.24;100.00;98965.56;5016557;28;20294;-71
2022/10/18 04:00:50;;;;;;;9.00;4.23;;;;;;;14.16;100.00;98965.81;5016859;28;20232;-71
2022/10/18 04:03:17;;;;;;;3.97;3.50;;;;;;;14.18;100.00;98960.25;5016806;28;20222;-71
2022/10/18 04:05:43;;;;;;;7.40;3.90;;;;;;;14.17;100.00;98958.63;5016534;28;20206;-71
2022/10/18 04:08:09;;;;;;;6.47;4.10;;;;;;;14.13;100.00;98960.09;5016696;28;20199;-71
2022/10/18 04:10:38;;;;;;;7.23;3.97;;;;;;;14.11;100.00;98965.66;5016672;28;20237;-71
2022/10/18 04:13:06;;;;;;;9.13;4.07;;;;;;;14.06;100.00;98962.03;5016390;28;20740;-71
2022/10/18 04:15:32;;;;;;;7.83;4.07;;;;;;;14.02;100.00;98964.31;5016295;28;20224;-71
2022/10/18 04:17:59;;;;;;;6.47;4.30;;;;;;;14.02;100.00;98972.31;5016361;28;20226;-71
2022/10/18 04:20:26;;;;;;;6.60;4.20;;;;;;;14.00;100.00;98968.22;5016387;28;20317;-71
2022/10/18 04:22:53;;;;;;;8.37;4.60;;;;;;;13.99;100.00;98967.44;5016505;28;20557;-71
2022/10/18 04:25:20;;;;;;;7.37;4.23;;;;;;;13.96;100.00;98970.53;5016034;28;20209;-71
2022/10/18 04:27:47;;;;;;;8.80;4.17;;;;;;;13.99;100.00;98979.97;5015992;28;20206;-71
2022/10/18 04:30:13;;;;;;;6.40;4.20;;;;;;;14.01;100.00;98969.84;5016247;28;20733;-71
2022/10/18 04:32:39;;;;;;;6.70;4.20;;;;;;;14.03;100.00;98975.81;5016294;28;20213;-71
2022/10/18 04:35:06;;;;;;;7.13;4.40;;;;;;;14.08;100.00;98973.31;5016074;28;20203;-71
2022/10/18 04:37:33;;;;;;;8.83;4.10;;;;;;;14.14;100.00;98972.44;5015916;28;20229;-71
2022/10/18 04:39:59;;;;;;;8.40;4.27;;;;;;;14.15;100.00;98976.75;5016104;28;20231;-71
2022/10/18 04:42:25;;;;;;;7.73;4.30;;;;;;;14.25;100.00;98988.59;5015660;28;20206;-71
2022/10/18 04:44:52;;;;;;;6.77;4.00;;;;;;;14.27;100.00;98981.19;5015456;28;20217;-71
2022/10/18 04:47:18;;;;;;;8.33;4.30;;;;;;;14.29;100.00;98984.47;5015794;28;20199;-71
2022/10/18 04:49:45;;;;;;;6.97;3.97;;;;;;;14.32;100.00;98985.88;5015804;28;20215;-71
2022/10/18 04:52:11;;;;;;;9.27;4.30;;;;;;;14.37;100.00;98981.50;5015679;28;20210;-71
2022/10/18 04:54:38;;;;;;;7.97;4.37;;;;;;;14.38;100.00;98985.81;5015268;28;20617;-71
2022/10/18 04:57:04;;;;;;;6.73;3.80;;;;;;;14.36;100.00;98985.22;5015634;28;20209;-71
2022/10/18 04:59:30;;;;;;;11.23;4.30;;;;;;;14.39;100.00;98982.09;5015506;28;20311;-71
2022/10/18 05:01:57;;;;;;;8.47;3.83;;;;;;;14.38;100.00;98980.47;5015664;28;20206;-71
2022/10/18 05:04:23;;;;;;;5.17;3.20;;;;;;;14.75;100.00;98973.28;5015307;28;20210;-71
2022/10/18 05:06:49;;;;;;;7.57;3.10;;;;;;;15.13;100.00;98977.38;5015252;28;20217;-71
2022/10/18 05:09:16;;;;;;;6.27;3.10;;;;;;;15.53;100.00;98975.81;5015556;28;20203;-71
2022/10/18 05:11:42;;;;;;;4.23;3.00;;;;;;;15.71;100.00;98983.81;5015095;28;20374;-71
2022/10/18 05:14:09;;;;;;;6.53;3.37;;;;;;;15.95;100.00;98984.66;5014488;28;20214;-71
2022/10/18 05:16:36;;;;;;;8.90;3.60;;;;;;;16.11;100.00;98987.47;5014555;28;20268;-71
2022/10/18 05:19:05;;;;;;;4.53;2.50;;;;;;;16.30;100.00;98982.84;5015027;28;20233;-71
2022/10/18 05:21:31;;;;;;;4.37;2.80;;;;;;;16.49;100.00;98982.53;5014855;28;20280;-71
2022/10/18 05:23:58;;;;;;;7.17;2.73;;;;;;;16.69;98.75;98984.84;5014498;28;20214;-72
2022/10/18 05:26:24;;;;;;;6.00;2.50;;;;;;;16.74;97.63;98985.75;5014193;28;20218;-71
2022/10/18 05:28:50;;;;;;;3.63;2.50;;;;;;;16.90;96.54;98971.63;5014899;28;20203;-71
2022/10/18 05:31:17;;;;;;;6.67;2.53;;;;;;;16.88;95.95;98976.38;5014507;28;20234;-72
2022/10/18 05:33:43;;;;;;;4.00;2.33;;;;;;;17.15;93.19;98976.69;5014270;28;20207;-71
2022/10/18 05:36:10;;;;;;;4.30;2.43;;;;;;;17.06;94.06;98973.53;5014097;28;20211;-71
2022/10/18 05:38:41;;;;;;;4.07;3.13;;;;;;;16.63;100.00;98967.81;5014466;28;20253;-72
2022/10/18 05:41:08;;;;;;;5.60;3.50;;;;;;;16.23;100.00;98977.59;5014498;28;20226;-71
2022/10/18 05:43:35;;;;;;;5.90;2.73;;;;;;;15.99;100.00;98973.25;5014528;28;20210;-71
2022/10/18 05:46:01;;;;;;;6.63;3.43;;;;;;;15.77;100.00;98971.31;5014046;28;20211;-72
2022/10/18 05:48:27;;;;;;;6.43;3.40;;;;;;;15.62;100.00;98973.63;5014612;28;20207;-71
2022/10/18 05:50:54;;;;;;;4.83;3.20;;;;;;;15.60;100.00;98973.84;5014042;28;20230;-71
2022/10/18 05:53:20;;;;;;;7.40;3.43;;;;;;;15.49;100.00;98977.31;5014022;28;20210;-71
2022/10/18 05:55:46;;;;;;;8.93;4.27;;;;;;;15.40;100.00;98984.03;5014029;28;20203;-71
2022/10/18 05:58:13;;;;;;;9.87;4.20;;;;;;;15.27;100.00;98983.34;5013407;28;20233;-71
2022/10/18 06:00:39;;;;;;;12.67;5.10;;;;;;;15.08;100.00;98981.75;5013737;28;20223;-71
2022/10/18 06:03:05;;;;;;;9.13;4.77;;;;;;;15.02;100.00;98979.97;5014089;28;20218;-71
2022/10/18 06:05:32;;;;;;;7.10;4.93;;;;;;;15.00;100.00;98985.56;5013343;28;20214;-72
2022/10/18 06:07:58;;;;;;;8.20;5.10;;;;;;;14.91;100.00;98978.03;5014642;28;20245;-71
2022/10/18 06:10:25;;;;;;;8.30;4.73;;;;;;;14.90;100.00;98979.09;5014123;28;20267;-72
2022/10/18 06:12:51;;;;;;;9.90;4.90;;;;;;;14.81;100.00;98986.59;5014166;28;20210;-71
2022/10/18 06:15:17;;;;;;;8.83;5.17;;;;;;;14.79;100.00;98985.19;5013021;28;20214;-72
2022/10/18 06:17:44;;;;;;;10.57;4.67;;;;;;;14.81;100.00;98981.25;5012753;28;20724;-71
2022/10/18 06:20:10;;;;;;;10.50;4.77;;;;;;;14.86;100.00;98978.72;5013210;28;20227;-71
2022/10/18 06:22:37;;;;;;;12.57;5.17;;;;;;;14.92;100.00;98985.06;5013854;28;20222;-71
2022/10/18 06:25:03;;;;;;;6.57;3.67;;;;;;;15.31;100.00;98982.69;5013535;28;20206;-71
2022/10/18 06:27:31;;;;;;;6.33;3.53;;;;;;;15.61;100.00;98980.84;5013333;28;20207;-72
2022/10/18 06:29:57;;;;;;;6.20;3.20;;;;;;;16.05;100.00;98991.09;5013550;28;20273;-72
2022/10/18 06:32:23;;;;;;;3.70;2.70;;;;;;;16.28;100.00;98998.38;5013440;28;20207;-71
2022/10/18 06:34:50;;;;;;;6.37;3.13;;;;;;;16.46;100.00;98993.72;5012725;28;20619;-71
2022/10/18 06:37:16;;;;;;;4.17;2.70;;;;;;;16.59;100.00;98998.84;5013145;28;20211;-71
2022/10/18 06:39:43;;;;;;;4.00;2.83;;;;;;;16.74;100.00;98993.00;5013018;28;20236;-71
2022/10/18 06:42:09;;;;;;;4.73;3.20;;;;;;;16.83;100.00;99000.44;5013317;28;20646;-72
2022/10/18 06:44:35;;;;;;;4.37;2.93;;;;;;;16.93;98.25;99000.69;5013019;28;20569;-71
2022/10/18 06:47:02;;;;;;;3.90;3.07;;;;;;;16.84;100.00;99001.28;5013205;28;20562;-71
2022/10/18 06:49:28;;;;;;;7.43;3.00;;;;;;;16.88;100.00;99002.44;5013012;28;20293;-71
2022/10/18 06:51:54;;;;;;;4.30;3.50;;;;;;;16.94;100.00;99005.00;5013315;28;20244;-71
2022/10/18 06:54:21;;;;;;;7.17;3.30;;;;;;;17.15;95.90;99009.72;5013418;28;20210;-71
2022/10/18 06:56:47;;;;;;;5.43;2.93;;;;;;;17.01;97.83;99007.56;5013741;28;20202;-71
2022/10/18 06:59:14;;;;;;;6.67;2.80;;;;;;;17.11;97.29;99007.78;5013137;28;20226;-71
2022/10/18 07:01:40;;;;;;;5.13;3.10;;;;;;;17.53;91.66;98999.25;5012794;28;20728;-71
2022/10/18 07:04:07;;;;;;;4.23;2.90;;;;;;;17.47;92.45;99018.22;5013511;28;20592;-71
2022/10/18 07:06:33;;;;;;;3.47;2.63;;;;;;;17.44;92.67;98999.88;5013322;28;20214;-71
2022/10/18 07:09:01;;;;;;;3.10;2.17;;;;;;;17.53;91.30;99023.44;5013502;28;20198;-71
2022/10/18 07:11:28;;;;;;;4.97;2.70;;;;;;;17.52;92.79;99005.69;5013281;28;20261;-71
2022/10/18 07:14:01;;;;;;;5.00;2.60;;;;;;;17.59;91.52;99005.53;5012762;28;20217;-71
2022/10/18 07:16:29;;;;;;;7.63;2.93;;;;;;;17.47;92.48;99004.78;5013275;28;20218;-71
2022/10/18 07:18:55;;;;;;;4.97;2.80;;;;;;;17.45;94.42;99018.44;5016160;28;20229;-71
2022/10/18 07:21:24;;;;;;;6.17;3.03;;;;;;;17.38;94.61;99020.41;5017340;28;20226;-72
2022/10/18 07:23:51;;;;;;;3.03;2.67;;;;;;;17.48;94.60;99022.53;5017928;28;20218;-71
2022/10/18 07:26:22;;;;;;;4.20;2.70;;;;;;;17.67;90.63;99022.09;5016761;28;20673;-71
2022/10/18 07:28:54;;;;;;;3.97;2.73;;;;;;;17.72;90.02;99026.75;5016835;28;20630;-71
2022/10/18 07:31:22;;;;;;;3.73;3.00;;;;;;;17.87;88.50;99027.84;5017179;28;20231;-71
2022/10/18 07:33:48;;;;;;;7.00;2.93;;;;;;;17.86;89.28;99023.53;5017074;28;20619;-71
2022/10/18 07:36:15;;;;;;;5.80;2.60;;;;;;;17.86;89.30;99020.00;5017129;28;20210;-71
2022/10/18 07:38:41;;;;;;;6.60;2.60;;;;;;;17.88;89.20;99021.44;5017101;28;20234;-71
2022/10/18 07:41:10;;;;;;;3.00;2.73;;;;;;;17.93;88.98;99026.06;5016990;28;20747;-71
2022/10/18 07:43:37;;;;;;;4.77;2.60;;;;;;;18.09;87.33;99023.41;5016373;28;20217;-71
2022/10/18 07:46:04;;;;;;;5.07;2.70;;;;;;;18.21;86.72;99021.44;5017001;28;20206;-71
2022/10/18 07:48:31;;;;;;;3.90;2.67;;;;;;;18.26;86.61;99018.84;5017171;28;20198;-71
2022/10/18 07:50:59;;;;;;;4.87;2.90;;;;;;;18.33;86.88;99011.44;5017508;28;20226;-71
2022/10/18 07:53:26;;;;;;;5.57;2.70;;;;;;;18.36;86.09;99023.59;5016561;28;20736;-71
2022/10/18 07:55:52;;;;;;;5.63;2.80;;;;;;;18.47;86.50;99025.41;5016875;28;20206;-71
2022/10/18 07:58:18;;;;;;;3.47;2.80;;;;;;;18.58;83.88;99033.38;5016745;28;20226;-71
2022/10/18 08:00:45;;;;;;;7.83;2.50;;;;;;;18.65;84.16;99028.66;5016367;28;20305;-71
2022/10/18 08:03:11;;;;;;;6.07;2.93;;;;;;;18.63;84.35;99030.75;5016691;28;20212;-71
2022/10/18 08:05:37;;;;;;;5.10;2.57;;;;;;;18.62;86.03;99023.75;5016542;28;20213;-72
2022/10/18 08:08:04;;;;;;;5.37;2.60;;;;;;;18.63;85.96;99027.25;5016379;28;20298;-71
2022/10/18 08:10:30;;;;;;;3.00;2.80;;;;;;;18.60;86.18;99038.53;5016328;28;20226;-71
2022/10/18 08:12:56;;;;;;;5.03;2.53;;;;;;;18.65;84.80;99052.06;5016400;28;20206;-71
2022/10/18 08:15:24;;;;;;;3.67;2.60;;;;;;;18.63;84.83;99055.00;5016192;28;20219;-71
2022/10/18 08:17:51;;;;;;;5.03;2.70;;;;;;;18.51;85.64;99053.47;5016456;28;20207;-71
2022/10/18 08:20:17;;;;;;;3.40;2.97;;;;;;;18.52;86.26;99053.22;5016613;28;20226;-71
2022/10/18 08:22:44;;;;;;;4.63;2.70;;;;;;;18.42;87.76;99053.03;5016568;28;20240;-71
2022/10/18 08:25:10;;;;;;;3.13;2.60;;;;;;;18.46;88.18;99054.19;5016506;28;20214;-71
2022/10/18 08:27:36;;;;;;;3.30;2.60;;;;;;;18.53;87.02;99054.84;5016293;28;20217;-71
2022/10/18 08:30:03;;;;;;;3.47;2.83;;;;;;;18.58;86.54;99059.50;5015684;28;20222;-71
2022/10/18 08:32:29;;;;;;;6.73;2.80;;;;;;;18.55;87.44;99065.38;5016253;28;20207;-71
2022/10/18 08:34:55;;;;;;;7.87;2.80;;;;;;;18.51;87.55;99075.81;5016119;28;20202;-71
2022/10/18 08:37:22;;;;;;;5.23;2.53;;;;;;;18.54;87.20;99067.25;5016140;28;20214;-71
2022/10/18 08:39:48;;;;;;;7.00;3.00;;;;;;;18.60;86.58;99063.56;5015721;28;20223;-71
2022/10/18 08:42:32;;;;;;;4.40;2.83;;;;;;;18.58;87.14;99070.25;5015479;28;20213;-71
2022/10/18 08:44:59;;;;;;;7.33;2.90;;;;;;;18.61;87.83;99059.84;5016040;28;20282;-72
2022/10/18 08:47:44;;;;;;;4.07;2.70;;;;;;;18.68;88.75;99059.66;5014400;28;20211;-71
2022/10/18 08:50:17;;;;;;;4.83;3.00;;;;;;;18.73;88.57;99060.53;5015865;28;20223;-72
2022/10/18 08:53:07;;;;;;;5.57;3.20;;;;;;;18.81;86.92;99062.81;5015740;28;20195;-72
2022/10/18 08:55:45;;;;;;;6.87;2.80;;;;;;;19.02;84.16;99061.22;5015759;28;20202;-71
2022/10/18 08:58:21;;;;;;;6.77;2.60;;;;;;;18.97;85.04;99070.09;5015627;28;20194;-72
2022/10/18 09:01:20;;;;;;;2.97;2.60;;;;;;;18.97;86.77;99067.38;5015146;28;20754;-71
2022/10/18 09:04:05;;;;;;;3.00;2.70;;;;;;;19.04;86.93;99070.69;5015555;28;20205;-72
2022/10/18 09:07:01;;;;;;;7.63;2.70;;;;;;;19.15;85.50;99071.66;5015079;28;20199;-72
2022/10/18 09:09:44;;;;;;;6.33;2.90;;;;;;;19.32;84.81;99061.69;5013959;28;20579;-72
2022/10/18 09:12:32;;;;;;;5.67;2.50;;;;;;;19.46;80.81;99066.44;5015364;28;20195;-72
2022/10/18 09:15:29;;;;;;;7.77;3.00;;;;;;;19.72;80.78;99064.88;5015038;28;20211;-71
2022/10/18 09:18:29;;;;;;;4.73;3.00;;;;;;;20.04;78.00;99065.75;5013826;28;20218;-71
2022/10/18 09:21:00;;;;;;;5.20;2.63;;;;;;;20.12;81.01;99076.09;5013938;28;20229;-71
2022/10/18 09:23:43;;;;;;;6.97;3.30;;;;;;;20.34;78.54;99076.06;5015289;28;20197;-71
2022/10/18 09:26:16;;;;;;;6.60;3.17;;;;;;;20.71;76.56;99085.78;5014901;28;20195;-71
2022/10/18 09:29:03;;;;;;;5.27;3.23;;;;;;;19.68;80.03;99088.03;5014445;28;20639;-70
2022/10/18 09:31:51;;;;;;;6.37;3.23;;;;;;;19.24;82.88;99087.19;5014128;28;20669;-71
2022/10/18 09:34:21;;;;;;;6.97;3.37;;;;;;;19.62;82.84;99088.22;5014273;28;20207;-71
2022/10/18 09:36:51;;;;;;;4.33;2.90;;;;;;;19.56;81.00;99095.41;5014425;28;20216;-71
2022/10/18 09:39:35;;;;;;;3.77;2.60;;;;;;;18.80;83.47;99090.00;5014450;28;20557;-71
2022/10/18 09:42:27;;;;;;;5.13;3.30;;;;;;;18.78;86.58;99095.63;5014073;28;20195;-71
2022/10/18 09:45:13;;;;;;;7.50;3.50;;;;;;;18.80;87.66;99098.91;5014821;28;20207;-71
2022/10/18 09:47:55;;;;;;;5.50;3.30;;;;;;;18.26;88.29;99105.00;5014821;28;20194;-71
2022/10/18 09:50:32;;;;;;;7.80;3.47;;;;;;;18.60;87.64;99101.28;5014831;28;20226;-71
2022/10/18 09:53:07;;;;;;;4.67;3.50;;;;;;;18.97;86.90;99106.97;5014752;28;20201;-71
2022/10/18 09:55:38;;;;;;;6.60;3.43;;;;;;;18.93;86.63;99105.84;5014824;28;20205;-71
2022/10/18 09:58:07;;;;;;;4.70;3.10;;;;;;;18.96;88.81;99094.56;5014341;28;20201;-71
2022/10/18 10:00:49;;;;;;;4.87;2.77;;;;;;;18.95;87.49;99092.94;5014392;28;20250;-71
2022/10/18 10:03:16;;;;;;;6.50;3.50;;;;;;;18.72;90.85;99093.94;5014509;28;20241;-71
2022/10/18 10:05:45;;;;;;;5.80;3.57;;;;;;;18.91;90.09;99095.31;5014238;28;20295;-71
2022/10/18 10:08:12;;;;;;;9.77;3.87;;;;;;;18.74;86.70;99101.78;5014439;28;20207;-71
2022/10/18 10:10:40;;;;;;;6.20;3.27;;;;;;;18.71;87.48;99096.88;5014414;28;20228;-71
2022/10/18 10:13:21;;;;;;;6.57;3.50;;;;;;;18.92;86.61;99099.63;5014038;28;20209;-71
2022/10/18 10:16:01;;;;;;;4.37;3.17;;;;;;;19.08;86.86;99097.97;5013892;28;20214;-71
2022/10/18 10:18:31;;;;;;;8.57;3.57;;;;;;;18.91;86.86;99092.59;5013867;28;20194;-71
2022/10/18 10:20:59;;;;;;;6.63;3.73;;;;;;;18.86;87.79;99097.94;5013938;28;20732;-71
2022/10/18 10:23:53;;;;;;;7.87;3.40;;;;;;;18.97;87.64;99097.03;5013740;28;20217;-71
2022/10/18 10:26:32;;;;;;;5.60;3.37;;;;;;;19.31;88.67;99097.78;5013978;28;20293;-71
2022/10/18 10:28:58;;;;;;;6.87;3.93;;;;;;;19.69;82.67;99097.75;5014160;28;20182;-71
2022/10/18 10:31:24;;;;;;;6.30;3.37;;;;;;;19.74;84.39;99108.59;5013929;28;20232;-71
2022/10/18 10:34:14;;;;;;;7.33;3.00;;;;;;;19.75;82.32;99110.22;5013649;28;20211;-71
2022/10/18 10:36:52;;;;;;;6.83;3.33;;;;;;;19.68;83.15;99096.91;5013627;28;20535;-71
2022/10/18 10:39:20;;;;;;;4.13;3.20;;;;;;;19.89;83.71;99100.66;5014030;28;20237;-71
2022/10/18 10:41:51;;;;;;;4.73;3.30;;;;;;;19.99;83.71;99098.06;5013656;28;20339;-71
2022/10/18 10:44:24;;;;;;;9.17;3.30;;;;;;;20.10;82.62;99088.22;5014189;28;20195;-71
2022/10/18 10:46:52;;;;;;;7.87;3.63;;;;;;;19.95;82.75;99088.03;5014041;28;20207;-71
2022/10/18 10:49:22;;;;;;;8.87;4.00;;;;;;;19.87;81.09;99092.00;5013054;28;20243;-72
2022/10/18 10:52:01;;;;;;;6.83;3.33;;;;;;;19.97;81.21;99085.88;5012995;28;20241;-71
2022/10/18 10:54:34;;;;;;;6.97;3.20;;;;;;;19.86;81.83;99084.16;5013747;28;20194;-71
2022/10/18 10:57:03;;;;;;;7.00;3.43;;;;;;;19.85;82.21;99090.63;5013224;28;20191;-71
2022/10/18 10:59:37;;;;;;;7.73;3.30;;;;;;;20.00;80.95;99091.63;5012959;28;20230;-71
2022/10/18 11:02:16;;;;;;;6.07;3.30;;;;;;;19.99;80.11;99094.56;5012617;28;20191;-71
2022/10/18 11:04:43;;;;;;;9.67;3.43;;;;;;;19.95;81.09;99082.66;5012843;28;20716;-72
2022/10/18 11:07:27;;;;;;;6.93;3.27;;;;;;;20.00;79.68;99088.91;5012842;28;20274;-71
2022/10/18 11:09:59;;;;;;;6.83;2.93;;;;;;;19.93;80.86;99092.91;5011989;28;20219;-71
2022/10/18 11:12:41;;;;;;;6.63;3.03;;;;;;;19.92;80.24;99083.97;5013248;28;20195;-71
2022/10/18 11:15:11;;;;;;;7.77;3.20;;;;;;;20.07;80.74;99086.03;5011705;28;20214;-71
2022/10/18 11:17:59;;;;;;;6.23;3.30;;;;;;;20.22;81.38;99080.78;5013075;28;20252;-71
2022/10/18 11:20:41;;;;;;;5.37;3.13;;;;;;;20.55;82.42;99078.66;5013012;28;20241;-71
2022/10/18 11:23:15;;;;;;;4.03;3.23;;;;;;;20.80;79.27;99075.34;5012859;28;20202;-71
2022/10/18 11:26:02;;;;;;;7.60;3.17;;;;;;;20.17;80.63;99080.75;5013304;28;20203;-71
2022/10/18 11:28:45;;;;;;;5.43;3.20;;;;;;;20.24;81.88;99081.34;5012819;28;20229;-71
2022/10/18 11:31:24;;;;;;;5.20;3.37;;;;;;;20.26;82.18;99068.41;5012921;28;20228;-71
2022/10/18 11:34:14;;;;;;;4.60;3.10;;;;;;;20.53;82.83;99074.59;5013065;28;20194;-71
2022/10/18 11:36:40;;;;;;;9.70;3.50;;;;;;;20.49;84.22;99076.19;5014222;28;20202;-71
2022/10/18 11:39:38;;;;;;;5.30;3.27;;;;;;;20.37;80.91;99081.75;5012540;28;20256;-71
2022/10/18 11:42:32;;;;;;;10.03;3.17;;;;;;;20.44;84.11;99074.22;5012633;28;20195;-71
2022/10/18 11:45:21;;;;;;;7.77;3.60;;;;;;;20.54;81.96;99066.22;5012605;28;20202;-71
2022/10/18 11:48:02;;;;;;;5.18;3.15;;;;;;;20.60;80.01;99064.38;5012743;28;20195;-71